Time;durP1;ratioP1;P1;durP2;ratioP2;P2;SDS_P1;SDS_P2;PMS_P1;PMS_P2;Temp;Humidity;BMP_temperature;BMP_pressure;BME280_temperature;BME280_humidity;BME280_pressure;Samples;Min_cycle;Max_cycle;Signal;HPM_P1;HPM_P2
2022/05/06 00:01:40;;;;;;;35.57;22.97;;;12.10;97.40;;;;;;5113152;28;20634;-72
2022/05/06 00:04:06;;;;;;;42.67;23.80;;;12.10;97.80;;;;;;5113133;28;20199;-71
2022/05/06 00:06:33;;;;;;;40.83;26.90;;;12.00;97.60;;;;;;5112760;28;20163;-71
2022/05/06 00:08:58;;;;;;;42.60;24.53;;;12.00;98.20;;;;;;5113108;28;20176;-72
2022/05/06 00:11:25;;;;;;;37.80;24.33;;;12.00;97.90;;;;;;5113229;28;20530;-72
2022/05/06 00:13:52;;;;;;;44.47;25.77;;;12.00;97.90;;;;;;5094703;28;20190;-71
2022/05/06 00:16:22;;;;;;;37.00;25.47;;;11.90;99.80;;;;;;5113024;28;20191;-72
2022/05/06 00:18:49;;;;;;;38.73;23.90;;;11.90;99.90;;;;;;5113133;28;20163;-72
2022/05/06 00:21:15;;;;;;;38.03;24.43;;;11.80;99.90;;;;;;5113156;28;20182;-71
2022/05/06 00:23:41;;;;;;;38.27;24.53;;;11.80;99.90;;;;;;5115346;28;20171;-71
2022/05/06 00:26:08;;;;;;;40.73;25.67;;;11.80;99.90;;;;;;5116775;28;20195;-70
2022/05/06 00:28:34;;;;;;;43.63;27.30;;;11.80;99.90;;;;;;5116566;28;20171;-71
2022/05/06 00:31:02;;;;;;;38.30;26.37;;;11.70;99.90;;;;;;5116802;28;20191;-71
2022/05/06 00:33:29;;;;;;;39.60;26.20;;;11.70;99.90;;;;;;5116538;28;20167;-72
2022/05/06 00:35:55;;;;;;;43.87;27.10;;;11.60;99.90;;;;;;5116656;28;20210;-71
2022/05/06 00:38:21;;;;;;;45.00;27.80;;;11.70;99.90;;;;;;5116714;28;20172;-72
2022/05/06 00:40:47;;;;;;;45.27;28.17;;;11.60;99.90;;;;;;5116629;28;20251;-71
2022/05/06 00:43:13;;;;;;;41.10;27.70;;;11.60;99.90;;;;;;5116322;28;20171;-71
2022/05/06 00:45:54;;;;;;;48.30;28.17;;;11.50;99.90;;;;;;5116523;28;20171;-71
2022/05/06 00:48:23;;;;;;;47.80;29.13;;;11.60;99.90;;;;;;5116147;28;20194;-71
2022/05/06 00:50:49;;;;;;;44.93;28.80;;;11.50;99.90;;;;;;5116358;28;20179;-72
2022/05/06 00:53:15;;;;;;;42.67;28.73;;;11.50;99.90;;;;;;5116393;28;20225;-71
2022/05/06 00:55:42;;;;;;;44.70;27.43;;;11.50;99.90;;;;;;5116143;28;20199;-72
2022/05/06 00:58:09;;;;;;;46.60;28.87;;;11.60;99.90;;;;;;5116201;28;20234;-71
2022/05/06 01:00:34;;;;;;;47.97;30.23;;;11.80;99.90;;;;;;5116461;28;20167;-70
2022/05/06 01:03:00;;;;;;;45.70;28.97;;;12.00;99.90;;;;;;5115811;28;20201;-71
2022/05/06 01:05:26;;;;;;;42.27;27.13;;;11.90;99.90;;;;;;5116266;28;20171;-71
2022/05/06 01:07:53;;;;;;;34.63;24.67;;;12.00;99.90;;;;;;5116223;28;20174;-71
2022/05/06 01:10:20;;;;;;;38.93;25.83;;;12.00;99.90;;;;;;5115997;28;20175;-71
2022/05/06 01:12:47;;;;;;;37.27;25.67;;;11.80;99.90;;;;;;5115941;28;20163;-70
2022/05/06 01:15:31;;;;;;;39.87;26.43;;;11.70;99.90;;;;;;5116027;28;20215;-71
2022/05/06 01:17:58;;;;;;;45.03;27.00;;;11.60;99.90;;;;;;5115591;28;20201;-71
2022/05/06 01:20:25;;;;;;;38.97;25.80;;;11.50;99.90;;;;;;5116085;28;20167;-70
2022/05/06 01:22:57;;;;;;;39.20;25.57;;;11.70;99.90;;;;;;5115696;28;20167;-71
2022/05/06 01:25:23;;;;;;;34.53;24.37;;;11.80;99.90;;;;;;5115706;28;20202;-71
2022/05/06 01:27:55;;;;;;;31.43;21.70;;;11.80;99.90;;;;;;5097612;28;20176;-71
2022/05/06 01:30:30;;;;;;;30.57;21.57;;;11.90;99.90;;;;;;5115901;28;20268;-70
2022/05/06 01:32:56;;;;;;;29.10;20.83;;;11.80;98.30;;;;;;5115325;28;20523;-71
2022/05/06 01:35:22;;;;;;;29.70;21.30;;;11.60;99.60;;;;;;5114626;28;20210;-71
2022/05/06 01:37:51;;;;;;;30.40;21.13;;;11.40;99.90;;;;;;5115428;28;20175;-71
2022/05/06 01:40:20;;;;;;;26.93;20.87;;;11.30;99.90;;;;;;5115488;28;20736;-70
2022/05/06 01:42:46;;;;;;;33.90;21.40;;;10.90;99.90;;;;;;5115427;28;20175;-72
2022/05/06 01:45:16;;;;;;;45.20;25.73;;;10.70;99.90;;;;;;5115469;28;20167;-71
2022/05/06 01:47:42;;;;;;;32.37;22.37;;;10.80;99.90;;;;;;5114949;28;20164;-72
2022/05/06 01:50:12;;;;;;;33.93;22.63;;;10.80;99.90;;;;;;5115451;28;20174;-71
2022/05/06 01:52:40;;;;;;;34.00;23.10;;;10.70;99.90;;;;;;5097092;28;20270;-71
2022/05/06 01:55:08;;;;;;;37.63;25.27;;;10.70;99.90;;;;;;5115088;28;20217;-71
2022/05/06 01:57:34;;;;;;;34.80;23.37;;;10.70;99.90;;;;;;5115168;28;20314;-71
2022/05/06 02:00:00;;;;;;;34.77;24.27;;;10.90;99.90;;;;;;5115233;28;20671;-70
2022/05/06 02:02:25;;;;;;;38.13;24.80;;;11.10;99.90;;;;;;5114703;28;20171;-72
2022/05/06 02:07:35;;;;;;;40.27;25.20;;;11.20;99.90;;;;;;5115414;28;20194;-71
2022/05/06 02:10:01;;;;;;;36.40;23.77;;;11.10;99.90;;;;;;5114884;28;20198;-71
2022/05/06 02:12:26;;;;;;;37.33;24.33;;;11.10;99.90;;;;;;5115018;28;20171;-70
2022/05/06 02:14:52;;;;;;;46.53;23.97;;;11.00;99.90;;;;;;5114196;28;20546;-71
2022/05/06 02:17:18;;;;;;;38.13;24.73;;;10.90;99.90;;;;;;5114894;28;20569;-71
2022/05/06 02:19:43;;;;;;;36.37;23.97;;;10.90;99.90;;;;;;5114829;28;20171;-70
2022/05/06 02:22:09;;;;;;;31.83;22.47;;;11.00;99.90;;;;;;5114730;28;20670;-71
2022/05/06 02:24:35;;;;;;;37.17;24.67;;;11.10;99.90;;;;;;5114695;28;20159;-70
2022/05/06 02:27:00;;;;;;;34.50;23.53;;;11.20;99.90;;;;;;5114491;28;20183;-70
2022/05/06 02:29:26;;;;;;;32.00;22.87;;;11.30;99.90;;;;;;5114170;28;20167;-70
2022/05/06 02:34:36;;;;;;;29.73;22.37;;;11.40;99.90;;;;;;5114261;28;20213;-70
2022/05/06 02:37:02;;;;;;;35.37;23.00;;;11.30;99.90;;;;;;5114537;28;20610;-71
2022/05/06 02:39:27;;;;;;;31.20;23.13;;;11.30;99.90;;;;;;5114466;28;20167;-71
2022/05/06 02:41:53;;;;;;;32.07;21.73;;;11.30;99.90;;;;;;5113956;28;20641;-70
2022/05/06 02:44:18;;;;;;;35.30;23.97;;;11.30;99.90;;;;;;5113926;28;20168;-71
2022/05/06 02:46:44;;;;;;;35.40;23.90;;;11.30;99.90;;;;;;5114250;28;20159;-71
2022/05/06 02:49:10;;;;;;;33.40;23.13;;;11.40;99.90;;;;;;5114094;28;20185;-71
2022/05/06 02:51:36;;;;;;;31.70;22.17;;;11.40;99.90;;;;;;5113995;28;20159;-70
2022/05/06 02:54:02;;;;;;;34.60;22.70;;;11.50;99.90;;;;;;5113939;28;20225;-71
2022/05/06 02:56:27;;;;;;;35.70;24.77;;;11.60;99.90;;;;;;5113767;28;20567;-71
2022/05/06 02:58:53;;;;;;;35.57;24.50;;;11.60;99.90;;;;;;5113689;28;20249;-71
2022/05/06 03:01:19;;;;;;;32.87;24.43;;;11.80;99.90;;;;;;5113964;28;20250;-71
2022/05/06 03:03:44;;;;;;;35.27;24.23;;;11.80;99.90;;;;;;5113843;28;20194;-70
2022/05/06 03:06:10;;;;;;;36.37;24.20;;;11.80;99.90;;;;;;5113845;28;20239;-71
2022/05/06 03:08:36;;;;;;;33.20;23.53;;;11.80;98.30;;;;;;5113879;28;20183;-71
2022/05/06 03:11:02;;;;;;;34.77;22.67;;;11.80;96.40;;;;;;5113679;28;20163;-71
2022/05/06 03:13:28;;;;;;;31.83;22.63;;;11.80;96.90;;;;;;5113408;28;20511;-69
2022/05/06 03:15:53;;;;;;;39.00;24.67;;;11.70;96.40;;;;;;5113675;28;20238;-71
2022/05/06 03:18:19;;;;;;;36.43;24.70;;;11.70;97.30;;;;;;5113619;28;20246;-70
2022/05/06 03:20:45;;;;;;;36.27;24.20;;;11.70;96.60;;;;;;5113598;28;20172;-70
2022/05/06 03:23:13;;;;;;;34.70;23.83;;;11.80;97.20;;;;;;5113555;28;20202;-70
2022/05/06 03:25:39;;;;;;;35.17;22.57;;;11.80;95.40;;;;;;5113433;28;20197;-70
2022/05/06 03:28:07;;;;;;;46.90;24.37;;;11.80;94.70;;;;;;5113167;28;20179;-70
2022/05/06 03:30:40;;;;;;;35.33;23.23;;;11.90;94.10;;;;;;5113140;28;20235;-71
2022/05/06 03:33:08;;;;;;;34.23;23.00;;;11.70;95.30;;;;;;5113293;28;20179;-71
2022/05/06 03:35:35;;;;;;;34.13;22.43;;;11.80;95.70;;;;;;5113209;28;20211;-70
2022/05/06 03:38:01;;;;;;;33.13;21.97;;;11.70;94.30;;;;;;5113224;28;20171;-71
2022/05/06 03:40:26;;;;;;;35.80;23.03;;;11.70;93.70;;;;;;5113066;28;20170;-71
2022/05/06 03:42:52;;;;;;;34.10;22.37;;;11.50;95.70;;;;;;5112813;28;20195;-70
2022/05/06 03:45:18;;;;;;;37.73;24.83;;;11.40;98.60;;;;;;5113269;28;20175;-71
2022/05/06 03:47:44;;;;;;;37.73;22.40;;;11.40;98.60;;;;;;5113099;28;20167;-71
2022/05/06 03:52:54;;;;;;;37.80;23.37;;;11.50;98.90;;;;;;5113129;28;20178;-71
2022/05/06 03:55:20;;;;;;;35.07;22.10;;;11.50;98.80;;;;;;5112826;28;20566;-71
2022/05/06 03:57:46;;;;;;;39.67;22.73;;;11.60;99.20;;;;;;5113354;28;20219;-71
2022/05/06 04:00:14;;;;;;;34.93;20.07;;;11.60;98.60;;;;;;5117117;28;20179;-71
2022/05/06 04:02:40;;;;;;;29.50;19.27;;;11.50;98.60;;;;;;5116996;28;20171;-70
2022/05/06 04:05:06;;;;;;;28.70;19.10;;;11.30;99.90;;;;;;5116659;28;20626;-70
2022/05/06 04:07:32;;;;;;;29.77;19.90;;;11.30;99.90;;;;;;5117212;28;20202;-71
2022/05/06 04:09:57;;;;;;;27.57;18.93;;;11.30;99.90;;;;;;5116790;28;20614;-71
2022/05/06 04:12:23;;;;;;;25.87;17.53;;;11.20;99.90;;;;;;5116138;28;20171;-70
2022/05/06 04:14:49;;;;;;;27.27;17.63;;;11.10;99.90;;;;;;5116434;28;20250;-70
2022/05/06 04:17:16;;;;;;;28.97;18.07;;;11.00;99.90;;;;;;5116509;28;20178;-71
2022/05/06 04:23:28;;;;;;;29.73;17.20;;;11.00;99.90;;;;;;5098410;28;20592;-70
2022/05/06 04:25:15;;;;;;;25.53;17.67;;;11.20;99.90;;;;;;5116574;28;20240;-70
2022/05/06 04:27:42;;;;;;;26.13;17.53;;;11.10;99.90;;;;;;5115974;28;20167;-71
2022/05/06 04:30:08;;;;;;;25.17;17.27;;;11.10;99.90;;;;;;5116587;28;20269;-71
2022/05/06 04:32:34;;;;;;;23.90;16.30;;;11.10;99.90;;;;;;5116295;28;20175;-71
2022/05/06 04:35:00;;;;;;;25.40;16.97;;;11.10;99.90;;;;;;5116007;28;20215;-71
2022/05/06 04:37:26;;;;;;;24.73;16.63;;;11.10;99.90;;;;;;5116056;28;20167;-70
2022/05/06 04:39:52;;;;;;;24.90;15.83;;;11.20;99.90;;;;;;5115876;28;20620;-70
2022/05/06 04:42:18;;;;;;;21.73;16.07;;;11.10;99.90;;;;;;5116102;28;20186;-70
2022/05/06 04:44:44;;;;;;;27.13;16.33;;;11.10;99.90;;;;;;5116302;28;20308;-70
2022/05/06 04:47:10;;;;;;;23.37;15.87;;;10.80;99.90;;;;;;5115893;28;20171;-71
2022/05/06 04:49:35;;;;;;;22.27;15.23;;;10.60;99.90;;;;;;5116203;28;20533;-71
2022/05/06 04:52:01;;;;;;;19.17;14.47;;;10.50;99.90;;;;;;5115450;28;20216;-71
2022/05/06 04:54:26;;;;;;;28.63;15.53;;;10.50;99.90;;;;;;5114965;28;20206;-71
2022/05/06 04:56:53;;;;;;;34.67;17.47;;;10.40;99.90;;;;;;5115559;28;20245;-71
2022/05/06 04:59:22;;;;;;;32.87;16.53;;;10.40;99.90;;;;;;5114569;28;20322;-70
2022/05/06 05:01:48;;;;;;;26.27;15.13;;;10.20;99.90;;;;;;5115248;28;20174;-71
2022/05/06 05:04:13;;;;;;;47.77;17.30;;;10.20;99.90;;;;;;5114894;28;20224;-71
2022/05/06 05:06:39;;;;;;;25.53;16.80;;;10.40;99.90;;;;;;5115323;28;20478;-71
2022/05/06 05:09:04;;;;;;;22.13;15.50;;;10.20;99.90;;;;;;5113953;28;20627;-71
2022/05/06 05:11:30;;;;;;;27.07;16.77;;;10.10;99.90;;;;;;5114814;28;20171;-71
2022/05/06 05:13:56;;;;;;;26.23;17.23;;;10.00;99.90;;;;;;5115172;28;20202;-71
2022/05/06 05:16:21;;;;;;;26.90;16.90;;;10.00;99.90;;;;;;5114905;28;20237;-71
2022/05/06 05:18:47;;;;;;;25.00;16.27;;;10.00;99.90;;;;;;5115026;28;20186;-71
2022/05/06 05:21:12;;;;;;;23.60;16.00;;;10.10;99.90;;;;;;5114933;28;20618;-72
2022/05/06 05:23:38;;;;;;;24.23;16.03;;;10.20;99.90;;;;;;5114895;28;20183;-72
2022/05/06 05:26:03;;;;;;;25.07;16.53;;;10.40;99.90;;;;;;5114029;28;20290;-71
2022/05/06 05:28:29;;;;;;;23.33;16.10;;;10.40;99.90;;;;;;5114448;28;20163;-71
2022/05/06 05:30:55;;;;;;;22.83;16.40;;;10.50;99.90;;;;;;5114575;28;20248;-71
2022/05/06 05:33:20;;;;;;;26.17;16.13;;;10.50;99.90;;;;;;5114108;28;20179;-71
2022/05/06 05:35:46;;;;;;;23.63;15.17;;;10.70;99.90;;;;;;5114518;28;20240;-71
2022/05/06 05:38:11;;;;;;;25.53;17.00;;;10.70;99.90;;;;;;5113932;28;20618;-70
2022/05/06 05:40:37;;;;;;;38.07;17.80;;;10.80;99.90;;;;;;5113867;28;20220;-71
2022/05/06 05:43:04;;;;;;;27.50;17.40;;;10.90;99.90;;;;;;5114411;28;20168;-70
2022/05/06 05:48:19;;;;;;;31.47;18.30;;;11.20;99.90;;;;;;5114506;28;20202;-72
2022/05/06 05:50:45;;;;;;;35.40;19.43;;;11.50;99.90;;;;;;5113846;28;20179;-71
2022/05/06 05:53:11;;;;;;;26.70;18.13;;;11.70;99.90;;;;;;5113471;28;20599;-72
2022/05/06 05:55:37;;;;;;;28.27;18.97;;;11.60;95.40;;;;;;5113188;28;20210;-71
2022/05/06 05:58:03;;;;;;;27.30;17.60;;;11.20;99.00;;;;;;5113796;28;20291;-71
2022/05/06 06:00:28;;;;;;;28.63;18.53;;;11.10;99.90;;;;;;5114137;28;20181;-71
2022/05/06 06:02:55;;;;;;;28.70;18.17;;;11.20;99.90;;;;;;5113553;28;20167;-72
2022/05/06 06:05:21;;;;;;;32.90;18.73;;;11.60;99.90;;;;;;5113603;28;20178;-71
2022/05/06 06:07:47;;;;;;;32.87;17.57;;;12.00;99.90;;;;;;5113513;28;20167;-72
2022/05/06 06:10:13;;;;;;;29.50;17.30;;;12.30;98.50;;;;;;5112927;28;20546;-71
2022/05/06 06:12:39;;;;;;;24.97;17.80;;;12.60;90.90;;;;;;5113347;28;20642;-71
2022/05/06 06:15:05;;;;;;;28.27;17.20;;;12.90;75.80;;;;;;5113680;28;20263;-71
2022/05/06 06:17:31;;;;;;;29.57;17.50;;;13.00;57.10;;;;;;5113354;28;20618;-71
2022/05/06 06:19:57;;;;;;;25.47;17.23;;;13.10;51.30;;;;;;5113612;28;20175;-71
2022/05/06 06:22:22;;;;;;;22.63;16.77;;;13.30;37.20;;;;;;5094334;28;20186;-71
2022/05/06 06:24:48;;;;;;;25.80;17.47;;;13.30;31.00;;;;;;5113352;28;20535;-72
2022/05/06 06:27:15;;;;;;;25.60;17.77;;;13.50;25.70;;;;;;5113106;28;20199;-71
2022/05/06 06:29:41;;;;;;;22.63;17.10;;;13.50;19.30;;;;;;5113570;28;20605;-72
2022/05/06 06:32:07;;;;;;;29.43;17.93;;;13.60;16.00;;;;;;5112260;28;20246;-72
2022/05/06 06:34:33;;;;;;;24.67;17.43;;;13.50;15.10;;;;;;5104516;28;20207;-71
2022/05/06 06:36:58;;;;;;;24.53;17.90;;;13.70;18.40;;;;;;5111601;28;20589;-72
2022/05/06 06:39:24;;;;;;;22.60;16.70;;;13.80;16.10;;;;;;5112218;28;20201;-72
2022/05/06 06:41:49;;;;;;;22.60;15.80;;;13.90;10.60;;;;;;5112223;28;20630;-70
2022/05/06 06:44:15;;;;;;;24.90;17.63;;;14.10;1.00;;;;;;5112536;28;20194;-72
2022/05/06 06:46:41;;;;;;;25.20;17.50;;;14.50;1.00;;;;;;5111934;28;20199;-72
2022/05/06 06:49:06;;;;;;;23.00;17.40;;;14.60;1.00;;;;;;5111821;28;20163;-72
2022/05/06 06:51:32;;;;;;;24.83;17.70;;;14.80;1.00;;;;;;5112575;28;20163;-72
2022/05/06 06:53:58;;;;;;;28.40;18.73;;;15.00;1.00;;;;;;5111849;28;20176;-74
2022/05/06 06:56:23;;;;;;;26.67;18.20;;;14.90;1.00;;;;;;5112364;28;20740;-72
2022/05/06 06:58:49;;;;;;;23.93;18.03;;;15.00;1.00;;;;;;5111746;28;20291;-73
2022/05/06 07:01:15;;;;;;;25.87;18.93;;;15.30;1.00;;;;;;5112558;28;20254;-73
2022/05/06 07:03:41;;;;;;;26.10;19.43;;;15.50;1.00;;;;;;5112030;28;20163;-73
2022/05/06 07:11:52;;;;;;;23.47;18.27;;;15.80;1.00;;;;;;5112023;28;20174;-71
2022/05/06 07:14:18;;;;;;;29.47;19.80;;;15.80;1.00;;;;;;5111301;28;20194;-74
2022/05/06 07:16:44;;;;;;;49.83;25.03;;;15.90;1.00;;;;;;5112388;28;20179;-73
2022/05/06 07:19:09;;;;;;;22.80;18.03;;;15.70;1.00;;;;;;5112537;28;20654;-72
2022/05/06 07:21:35;;;;;;;29.23;18.63;;;15.60;1.00;;;;;;5112077;28;20175;-72
2022/05/06 07:24:01;;;;;;;30.47;19.10;;;15.70;1.00;;;;;;5111895;28;20182;-72
2022/05/06 07:26:27;;;;;;;31.50;20.27;;;15.80;1.00;;;;;;5112064;28;20214;-71
2022/05/06 07:28:53;;;;;;;32.00;21.13;;;16.00;1.00;;;;;;5096820;28;20255;-71
2022/05/06 07:31:18;;;;;;;35.43;20.80;;;15.80;1.00;;;;;;5112056;28;20620;-73
2022/05/06 07:33:44;;;;;;;26.47;19.27;;;15.60;1.00;;;;;;5111018;28;20206;-73
2022/05/06 07:36:09;;;;;;;30.17;19.27;;;15.60;1.00;;;;;;5098124;28;20230;-70
2022/05/06 07:38:35;;;;;;;26.07;18.73;;;15.50;1.00;;;;;;5093022;28;20267;-71
2022/05/06 07:41:03;;;;;;;22.53;15.83;;;15.20;1.00;;;;;;5094374;28;20712;-70
2022/05/06 07:43:29;;;;;;;23.70;17.80;;;15.00;1.00;;;;;;5111814;28;20172;-71
2022/05/06 07:45:55;;;;;;;26.37;17.73;;;15.20;1.00;;;;;;5111342;28;20171;-70
2022/05/06 07:48:20;;;;;;;28.30;19.37;;;15.60;1.00;;;;;;5110344;28;20265;-70
2022/05/06 07:50:46;;;;;;;27.70;19.60;;;15.50;1.00;;;;;;5111560;28;20167;-70
2022/05/06 07:53:13;;;;;;;26.37;19.30;;;15.60;1.00;;;;;;5111936;28;20672;-70
2022/05/06 07:55:39;;;;;;;30.27;19.83;;;15.50;1.00;;;;;;5111024;28;20202;-70
2022/05/06 07:58:05;;;;;;;28.70;19.97;;;15.30;1.00;;;;;;5112012;28;20308;-70
2022/05/06 08:00:33;;;;;;;25.37;18.77;;;15.40;1.00;;;;;;5111258;28;20686;-69
2022/05/06 08:05:47;;;;;;;28.00;20.40;;;16.00;1.00;;;;;;5109236;28;20181;-70
2022/05/06 08:08:13;;;;;;;28.40;20.33;;;16.60;1.00;;;;;;5111770;28;20212;-70
2022/05/06 08:10:44;;;;;;;28.70;19.70;;;16.70;1.00;;;;;;5110466;28;20182;-71
2022/05/06 08:13:10;;;;;;;30.40;22.07;;;16.10;1.00;;;;;;5111241;28;20722;-71
2022/05/06 08:15:35;;;;;;;30.63;21.43;;;16.10;1.00;;;;;;5111727;28;20381;-71
2022/05/06 08:18:01;;;;;;;29.70;22.07;;;16.20;1.00;;;;;;5111331;28;20198;-70
2022/05/06 08:20:27;;;;;;;34.37;22.50;;;16.00;1.00;;;;;;5112186;28;20250;-71
2022/05/06 08:22:52;;;;;;;31.90;22.40;;;16.40;1.00;;;;;;5111949;28;20207;-71
2022/05/06 08:25:18;;;;;;;36.50;22.03;;;16.90;1.00;;;;;;5111239;28;20684;-71
2022/05/06 08:27:44;;;;;;;31.47;23.13;;;17.20;1.00;;;;;;5111829;28;20702;-72
2022/05/06 08:30:12;;;;;;;29.93;21.27;;;17.80;1.00;;;;;;5112336;28;20177;-71
2022/05/06 08:32:39;;;;;;;27.20;19.63;;;18.60;1.00;;;;;;5111108;28;20216;-72
2022/05/06 08:35:05;;;;;;;29.30;21.60;;;18.90;1.00;;;;;;5111324;28;20298;-71
2022/05/06 08:37:45;;;;;;;28.92;21.80;;;19.50;99.90;;;;;;5112053;28;20179;-71
2022/05/06 08:40:22;;;;;;;25.80;19.95;;;20.00;99.90;;;;;;5111552;28;20175;-71
2022/05/06 08:42:49;;;;;;;27.98;21.30;;;20.10;1.00;;;;;;5111696;28;20556;-72
2022/05/06 08:50:52;;;;;;;25.88;19.88;;;20.90;1.00;;;;;;5115592;28;20175;-71
2022/05/06 08:53:20;;;;;;;22.02;17.98;;;20.40;1.00;;;;;;5115997;28;20523;-72
2022/05/06 08:55:51;;;;;;;27.30;18.70;;;21.00;99.90;;;;;;5115144;28;20209;-73
2022/05/06 08:58:16;;;;;;;24.70;19.48;;;21.70;99.90;;;;;;5115102;28;20218;-71
2022/05/06 09:00:42;;;;;;;25.65;18.50;;;23.10;1.00;;;;;;5115340;28;20198;-72
2022/05/06 09:03:08;;;;;;;26.38;20.83;;;23.80;1.00;;;;;;5114932;28;20610;-72
2022/05/06 09:05:48;;;;;;;22.77;18.83;;;23.90;1.00;;;;;;5114536;28;20239;-74
2022/05/06 09:08:14;;;;;;;27.70;20.05;;;25.20;99.90;;;;;;5115273;28;20175;-74
2022/05/06 09:10:39;;;;;;;23.38;18.70;;;25.80;99.90;;;;;;5114923;28;20667;-74
2022/05/06 09:13:05;;;;;;;22.88;19.05;;;26.00;99.90;;;;;;5114570;28;20171;-74
2022/05/06 09:18:21;;;;;;;23.40;19.42;;;27.60;99.90;;;;;;5115445;28;20691;-78
2022/05/06 09:20:47;;;;;;;22.67;19.50;;;28.40;99.90;;;;;;5114881;28;20175;-74
2022/05/06 09:23:26;;;;;;;23.65;19.58;;;27.90;99.90;;;;;;5096380;28;20205;-77
2022/05/06 09:25:53;;;;;;;22.67;18.35;;;26.60;99.90;;;;;;5114564;28;20198;-75
2022/05/06 09:28:24;;;;;;;20.02;18.00;;;27.50;99.90;;;;;;5114123;28;20176;-75
2022/05/06 09:31:09;;;;;;;17.63;15.73;;;28.60;99.90;;;;;;5114858;28;20267;-76
2022/05/06 09:33:38;;;;;;;20.52;18.33;;;29.10;99.90;;;;;;5114032;28;20167;-76
2022/05/06 09:36:22;;;;;;;23.58;18.13;;;30.00;99.90;;;;;;5107773;27;20213;-76
2022/05/06 09:39:08;;;;;;;19.67;17.63;;;30.70;99.90;;;;;;5109400;28;20173;-77
2022/05/06 09:41:38;;;;;;;19.60;17.55;;;30.50;99.90;;;;;;5112948;28;20175;-77
2022/05/06 09:44:06;;;;;;;18.17;15.57;;;29.70;99.90;;;;;;5113652;28;20254;-76
2022/05/06 09:46:32;;;;;;;15.57;13.88;;;29.50;99.90;;;;;;5112459;28;20171;-78
2022/05/06 09:49:03;;;;;;;16.45;13.02;;;30.20;99.90;;;;;;5114013;28;20179;-78
2022/05/06 09:51:34;;;;;;;17.10;13.98;;;30.30;99.90;;;;;;5112670;28;20166;-76
2022/05/06 09:54:01;;;;;;;15.55;13.95;;;30.30;99.90;;;;;;5103286;28;20170;-76
2022/05/06 09:56:29;;;;;;;16.45;14.68;;;28.90;99.90;;;;;;5112713;28;20255;-77
2022/05/06 09:58:57;;;;;;;18.95;15.43;;;29.00;99.90;;;;;;5113485;28;20330;-79
2022/05/06 10:01:22;;;;;;;17.77;15.07;;;28.20;99.90;;;;;;5112608;28;20759;-77
2022/05/06 10:03:51;;;;;;;18.60;15.73;;;28.50;99.90;;;;;;5113277;28;21183;-77
2022/05/06 10:06:17;;;;;;;17.58;15.77;;;28.70;99.90;;;;;;5113199;28;20167;-78
2022/05/06 10:08:53;;;;;;;17.38;15.15;;;28.50;99.90;;;;;;5112804;28;20508;-78
2022/05/06 10:11:23;;;;;;;17.33;14.02;;;29.30;99.90;;;;;;5111997;28;20213;-77
2022/05/06 10:13:50;;;;;;;16.10;14.40;;;29.40;99.90;;;;;;5114227;28;20609;-78
2022/05/06 10:16:16;;;;;;;16.98;14.80;;;28.80;99.90;;;;;;5113179;28;20696;-78
2022/05/06 10:18:44;;;;;;;18.90;15.63;;;28.60;99.90;;;;;;5113523;28;20171;-76
2022/05/06 10:21:14;;;;;;;19.10;15.05;;;26.90;99.90;;;;;;5113342;28;20312;-76
2022/05/06 10:23:54;;;;;;;16.85;13.60;;;25.60;99.90;;;;;;5096863;28;20167;-76
2022/05/06 10:26:39;;;;;;;14.77;12.80;;;26.80;99.90;;;;;;5113090;28;20191;-77
2022/05/06 10:35:12;;;;;;;10.38;8.77;;;27.80;99.90;;;;;;5113659;28;20563;-76
2022/05/06 10:37:40;;;;;;;10.70;9.10;;;29.70;99.90;;;;;;5030303;28;20675;-76
2022/05/06 10:40:23;;;;;;;8.70;7.90;;;29.10;99.90;;;;;;5030317;28;20182;-75
2022/05/06 10:42:50;;;;;;;11.20;9.60;;;27.80;99.90;;;;;;5029792;28;20178;-75
2022/05/06 10:45:23;;;;;;;10.30;9.27;;;27.40;99.90;;;;;;5029889;28;20613;-75
2022/05/06 10:47:50;;;;;;;10.10;9.13;;;27.80;99.90;;;;;;5029923;28;20182;-77
2022/05/06 10:50:19;;;;;;;15.65;12.18;;;28.00;99.90;;;;;;5013450;28;20572;-76
2022/05/06 10:52:45;;;;;;;12.75;11.45;;;28.90;99.90;;;;;;5030226;28;20197;-75
2022/05/06 10:55:13;;;;;;;13.70;12.30;;;30.20;99.90;;;;;;5030700;28;20210;-77
2022/05/06 10:58:02;;;;;;;13.60;11.88;;;30.70;99.90;;;;;;5012639;28;20221;-77
2022/05/06 11:00:29;;;;;;;14.75;11.57;;;30.30;99.90;;;;;;5029899;28;20652;-79
2022/05/06 11:02:58;;;;;;;12.98;11.20;;;30.10;99.80;;;;;;5030181;28;20656;-76
2022/05/06 11:05:24;;;;;;;14.30;11.25;;;30.30;99.40;;;;;;5029364;28;20178;-76
2022/05/06 11:07:54;;;;;;;16.00;11.98;;;30.30;94.30;;;;;;5029401;28;20178;-74
2022/05/06 11:10:22;;;;;;;15.75;11.55;;;29.60;98.70;;;;;;5029842;28;20170;-77
2022/05/06 11:12:50;;;;;;;11.18;9.98;;;28.90;99.40;;;;;;5092318;28;20225;-76
2022/05/06 11:15:18;;;;;;;14.13;10.18;;;28.90;99.90;;;;;;5091915;28;20207;-75
2022/05/06 11:17:45;;;;;;;11.80;9.65;;;27.70;99.90;;;;;;5091934;28;20172;-76
2022/05/06 11:20:31;;;;;;;12.18;8.77;;;27.50;99.90;;;;;;5091025;28;20265;-74
2022/05/06 11:23:01;;;;;;;8.00;7.20;;;28.30;99.90;;;;;;5088940;28;20309;-75
2022/05/06 11:25:30;;;;;;;8.75;7.90;;;28.70;99.90;;;;;;5092204;28;20222;-75
2022/05/06 11:27:57;;;;;;;11.13;9.95;;;29.10;99.90;;;;;;5092453;28;20266;-75
2022/05/06 11:30:24;;;;;;;9.95;8.95;;;29.70;98.10;;;;;;5092431;28;20243;-74
2022/05/06 11:33:01;;;;;;;9.43;8.00;;;29.90;96.20;;;;;;5092394;28;20172;-76
2022/05/06 11:35:32;;;;;;;10.63;9.52;;;29.70;93.10;;;;;;5092608;28;20258;-75
2022/05/06 11:37:58;;;;;;;10.20;9.20;;;30.30;94.20;;;;;;5092493;28;20176;-73
2022/05/06 11:42:49;;;;;;;10.38;8.75;;;30.30;89.80;;;;;;5092534;28;20168;-75
2022/05/06 11:48:09;;;;;;;10.18;8.40;;;29.60;85.90;;;;;;5092305;28;20174;-75
2022/05/06 11:50:35;;;;;;;9.07;8.18;;;27.60;99.10;;;;;;5092266;28;20240;-75
2022/05/06 11:53:04;;;;;;;9.00;7.90;;;26.10;98.10;;;;;;5092628;28;20178;-74
2022/05/06 11:55:31;;;;;;;9.23;8.00;;;25.50;99.90;;;;;;5090911;28;20290;-74
2022/05/06 11:57:57;;;;;;;9.55;7.68;;;25.40;99.90;;;;;;5098539;28;20223;-74
2022/05/06 12:00:24;;;;;;;9.07;7.65;;;25.20;99.90;;;;;;5111939;28;20202;-74
2022/05/06 12:02:51;;;;;;;8.35;6.75;;;25.20;99.90;;;;;;5111681;28;20228;-75
2022/05/06 12:05:20;;;;;;;8.15;7.28;;;25.80;99.90;;;;;;5112670;28;20278;-74
2022/05/06 12:07:48;;;;;;;7.55;6.35;;;25.50;99.90;;;;;;5112027;28;20254;-75
2022/05/06 12:10:24;;;;;;;6.50;5.85;;;25.10;99.90;;;;;;5112154;28;20175;-74
2022/05/06 12:13:00;;;;;;;9.80;7.45;;;24.60;99.90;;;;;;5110901;28;20167;-75
2022/05/06 12:15:43;;;;;;;7.32;6.63;;;24.70;99.90;;;;;;5111918;28;20746;-75
2022/05/06 12:18:17;;;;;;;8.77;7.97;;;24.70;99.90;;;;;;5111345;28;20164;-75
2022/05/06 12:20:46;;;;;;;9.00;7.55;;;24.30;99.90;;;;;;5115965;28;20243;-75
2022/05/06 12:23:13;;;;;;;8.85;7.93;;;24.30;99.90;;;;;;5116031;28;20170;-72
2022/05/06 12:25:40;;;;;;;9.80;8.57;;;23.90;99.90;;;;;;5114958;28;20198;-75
2022/05/06 12:28:16;;;;;;;10.88;8.68;;;24.00;99.90;;;;;;5115295;28;20216;-74
2022/05/06 12:30:44;;;;;;;11.25;8.13;;;24.10;99.90;;;;;;5115311;28;20706;-75
2022/05/06 12:33:12;;;;;;;9.93;7.45;;;24.20;99.90;;;;;;5115202;28;20179;-74
2022/05/06 12:36:00;;;;;;;8.27;5.95;;;24.20;99.90;;;;;;5115141;28;20215;-74
2022/05/06 12:38:46;;;;;;;8.65;6.40;;;24.20;99.90;;;;;;5115366;28;20171;-75
2022/05/06 12:41:26;;;;;;;10.15;6.30;;;24.00;99.90;;;;;;5115637;28;20167;-74
2022/05/06 12:43:54;;;;;;;8.40;7.57;;;23.80;99.90;;;;;;5115145;28;20194;-72
2022/05/06 12:46:36;;;;;;;12.40;6.55;;;23.70;99.90;;;;;;5089286;28;20179;-72
2022/05/06 12:51:46;;;;;;;12.60;8.10;;;23.80;99.90;;;;;;5103127;28;20182;-74
2022/05/06 12:54:13;;;;;;;12.30;8.48;;;23.90;99.90;;;;;;5106982;28;20171;-73
2022/05/06 12:56:40;;;;;;;12.40;10.18;;;24.10;99.90;;;;;;5114731;28;20217;-73
2022/05/06 12:59:06;;;;;;;9.40;8.32;;;24.10;99.90;;;;;;5114308;28;20260;-73
2022/05/06 13:01:33;;;;;;;10.68;8.00;;;23.70;99.90;;;;;;5113943;28;20190;-73
2022/05/06 13:03:59;;;;;;;12.95;8.93;;;23.90;99.90;;;;;;5096133;28;20163;-73
2022/05/06 13:06:25;;;;;;;9.25;7.72;;;23.70;99.90;;;;;;5108196;28;20167;-73
2022/05/06 13:08:51;;;;;;;10.63;7.70;;;23.60;99.90;;;;;;5114201;28;20167;-74
2022/05/06 13:11:16;;;;;;;13.90;10.65;;;23.60;99.90;;;;;;5113782;28;20244;-73
2022/05/06 13:13:42;;;;;;;7.93;7.13;;;23.50;99.90;;;;;;5113062;28;20167;-72
2022/05/06 13:16:09;;;;;;;9.93;8.27;;;23.70;99.90;;;;;;5113649;28;20291;-71
2022/05/06 13:18:35;;;;;;;15.60;8.80;;;23.90;99.90;;;;;;5114491;28;20174;-72